Eastover, North Carolina
Current Conditions -  °F | °C
As of 7:53 PM on Saturday 22 Nov 2014 (Local Time) from KFAY Reporting Station
Clear Clear  
Wind Chill: 43°   Ceiling: Unl
Heat Index: 43°   Visibility: 10mi
Dew Point: 28°   Wind: 0mph
Humidity: 56%   Direction: NA
Pressure: 30.36"   Gusts: NA
Location:  35.072°N, 78.8095°W
Report Text: KFAY 230053Z AUTO 00000KT 10SM CLR 06/M02 A3036 RMK AO2 SLP276 T00611022
Loading
Personal Weather Stations






























Interactive Weather Map New forecast layout! Learn more

10-Day Weather Forecast

Advertisements
Track Severe Weather on mobile